Main page
METAR-TAF:

METAR-TAF

Airports :

Trenton–Mercer Airport

Trenton, New Jersey, United States

latitude: 40-16-35N, longitude: 074-48-59W, elevation: 210 ft

Current weather observation

The report was made 1 hour and 5 minutes ago, at 03:53 UTC
Calm wind
Temperature 36°F
Humidity 51%
Pressure 30.35 in. Hg
Visibility: 10 miles
Few clouds at a height of 3600 ft

METAR: KTTN 240353Z AUTO 00000KT 10SM FEW036 02/M07 A3035 RMK AO2 SLP274 T00221072

Time: 23:58 (04:58 UTC)

Forecast

The report was made 5 hours and 31 minutes ago, at 23:27 UTC
Forecast valid from 24 at 00 UTC to 24 at 24 UTC
Wind 2 mph from variable directions
Visibility: 6 miles
Overcast at a height of 18000 ft
From 24 at 0900 UTC
Wind 3 mph from variable directions
Visibility: 6 miles
Scattered clouds at a height of 25000 ft
From 24 at 1800 UTC
Wind 7 mph from the East
Visibility: 6 miles
Broken clouds at a height of 18000 ft

TAF: KTTN 232327Z 2400/2424 VRB02KT P6SM OVC180 FM240900 VRB03KT P6SM SCT250 FM241800 09006KT P6SM BKN180

Weather observations and forecasts of more than 4000 airports (METAR and TAF reports).

The available stations are represented by yellow and red dots on the map.

Hover mouse over dot to see the name of the station.

Then click to see weather observations and forecasts.

To change the map : click on the green buttons with a black cross to zoom in, on the green button with a dash to zoom out, or on the green arrows for adjacent maps.


METAR-TAF: